createdAt,value
2022-09-25T00:01:41.558Z,97.40
2022-09-25T00:03:46.231Z,97.80
2022-09-25T00:05:50.611Z,97.20
2022-09-25T00:07:56.782Z,97.40
2022-09-25T00:10:02.452Z,97.40
2022-09-25T00:12:07.364Z,96.90
2022-09-25T00:14:11.678Z,96.70
2022-09-25T00:16:19.021Z,96.80
2022-09-25T00:18:38.841Z,96.10
2022-09-25T00:20:43.256Z,96.80
2022-09-25T00:22:47.651Z,97.00
2022-09-25T00:24:52.246Z,96.80
2022-09-25T00:26:57.937Z,96.90
2022-09-25T00:29:03.490Z,97.20
2022-09-25T00:31:09.706Z,97.50
2022-09-25T00:33:13.932Z,97.50
2022-09-25T00:35:18.365Z,97.70
2022-09-25T00:37:23.167Z,98.10
2022-09-25T00:39:27.794Z,98.10
2022-09-25T00:41:33.226Z,97.40
2022-09-25T00:43:42.105Z,97.70
2022-09-25T00:45:46.483Z,97.30
2022-09-25T00:47:57.871Z,97.40
2022-09-25T00:50:06.266Z,97.60
2022-09-25T00:52:14.436Z,98.10
2022-09-25T00:54:23.737Z,97.80
2022-09-25T00:56:30.300Z,98.00
2022-09-25T00:58:36.397Z,97.90
2022-09-25T01:00:43.077Z,98.00
2022-09-25T01:02:53.602Z,98.00
2022-09-25T01:05:01.733Z,98.20
2022-09-25T01:07:09.341Z,98.70
2022-09-25T01:09:13.746Z,98.90
2022-09-25T01:11:18.620Z,98.50
2022-09-25T01:13:23.751Z,97.90
2022-09-25T01:15:36.873Z,98.30
2022-09-25T01:17:50.608Z,98.80
2022-09-25T01:20:05.123Z,98.70
2022-09-25T01:22:17.740Z,98.90
2022-09-25T01:24:58.662Z,98.80
2022-09-25T01:27:27.763Z,98.60
2022-09-25T01:29:38.829Z,98.60
2022-09-25T01:31:48.328Z,98.60
2022-09-25T01:33:59.839Z,98.70
2022-09-25T01:36:11.255Z,98.90
2022-09-25T01:38:23.785Z,98.40
2022-09-25T01:40:33.688Z,97.70
2022-09-25T01:42:40.412Z,97.90
2022-09-25T01:44:53.373Z,98.50
2022-09-25T01:47:03.227Z,98.20
2022-09-25T01:49:12.736Z,98.00
2022-09-25T01:51:21.183Z,98.30
2022-09-25T01:53:30.028Z,98.40
2022-09-25T01:55:38.660Z,98.60
2022-09-25T01:57:49.350Z,98.40
2022-09-25T02:00:01.492Z,98.50
2022-09-25T02:02:19.466Z,98.60
2022-09-25T02:04:27.325Z,98.70
2022-09-25T02:06:34.963Z,98.70
2022-09-25T02:08:44.589Z,98.40
2022-09-25T02:10:52.922Z,98.70
2022-09-25T02:13:03.995Z,98.60
2022-09-25T02:15:15.174Z,98.80
2022-09-25T02:17:44.653Z,98.70
2022-09-25T02:20:02.654Z,98.80
2022-09-25T02:22:11.978Z,98.80
2022-09-25T02:24:22.260Z,99.10
2022-09-25T02:26:30.570Z,99.20
2022-09-25T02:28:35.711Z,99.20
2022-09-25T02:30:41.504Z,99.10
2022-09-25T02:32:45.950Z,99.00
2022-09-25T02:34:50.368Z,99.10
2022-09-25T02:36:55.034Z,98.30
2022-09-25T02:38:59.385Z,98.90
2022-09-25T02:41:14.931Z,98.90
2022-09-25T02:43:34.391Z,98.50
2022-09-25T02:45:51.361Z,97.90
2022-09-25T02:48:08.553Z,98.30
2022-09-25T02:50:23.133Z,98.40
2022-09-25T02:52:33.914Z,98.30
2022-09-25T02:54:45.755Z,98.30
2022-09-25T02:56:58.811Z,98.60
2022-09-25T02:59:11.523Z,98.50
2022-09-25T03:01:27.448Z,99.10
2022-09-25T03:03:40.411Z,99.00
2022-09-25T03:05:45.794Z,98.80
2022-09-25T03:08:07.688Z,98.00
2022-09-25T03:10:12.087Z,98.50
2022-09-25T03:12:16.651Z,98.50
2022-09-25T03:14:21.005Z,98.40
2022-09-25T03:16:35.031Z,98.80
2022-09-25T03:18:39.437Z,99.10
2022-09-25T03:20:43.826Z,99.40
2022-09-25T03:22:48.301Z,98.90
2022-09-25T03:24:52.501Z,98.50
2022-09-25T03:26:57.166Z,98.40
2022-09-25T03:29:02.571Z,98.00
2022-09-25T03:31:09.077Z,98.20
2022-09-25T03:33:15.039Z,98.40
2022-09-25T03:35:19.475Z,98.50
2022-09-25T03:37:26.307Z,98.90
2022-09-25T03:39:30.747Z,99.00
2022-09-25T03:41:36.585Z,98.30
2022-09-25T03:43:43.910Z,98.10
2022-09-25T03:45:48.658Z,98.10
2022-09-25T03:47:52.919Z,97.90
2022-09-25T03:49:58.741Z,97.80
2022-09-25T03:52:03.503Z,97.80
2022-09-25T03:54:08.029Z,97.80
2022-09-25T03:56:15.488Z,97.90
2022-09-25T03:58:19.728Z,97.90
2022-09-25T04:00:24.511Z,97.80
2022-09-25T04:02:29.487Z,97.90
2022-09-25T04:04:34.220Z,98.00
2022-09-25T04:06:40.599Z,97.90
2022-09-25T04:08:45.549Z,97.80
2022-09-25T04:10:49.857Z,98.20
2022-09-25T04:12:54.479Z,98.30
2022-09-25T04:14:58.745Z,98.30
2022-09-25T04:17:03.007Z,98.60
2022-09-25T04:19:07.571Z,99.00
2022-09-25T04:21:13.843Z,97.90
2022-09-25T04:23:19.896Z,97.60
2022-09-25T04:25:25.740Z,97.70
2022-09-25T04:27:30.356Z,98.40
2022-09-25T04:29:34.875Z,97.20
2022-09-25T04:31:39.340Z,96.20
2022-09-25T04:33:48.519Z,94.00
2022-09-25T04:35:53.539Z,93.20
2022-09-25T04:37:57.834Z,93.60
2022-09-25T04:40:04.086Z,93.80
2022-09-25T04:42:08.843Z,95.20
2022-09-25T04:44:13.141Z,94.40
2022-09-25T04:46:21.833Z,94.30
2022-09-25T04:48:31.537Z,94.40
2022-09-25T04:50:36.807Z,94.70
2022-09-25T04:52:41.125Z,94.70
2022-09-25T04:54:45.956Z,94.90
2022-09-25T04:56:52.154Z,95.40
2022-09-25T04:58:56.505Z,96.10
2022-09-25T05:01:04.342Z,96.20
2022-09-25T05:03:08.811Z,96.50
2022-09-25T05:05:13.459Z,97.00
2022-09-25T05:07:17.719Z,97.60
2022-09-25T05:09:22.085Z,97.00
2022-09-25T05:11:26.367Z,95.00
2022-09-25T05:13:32.273Z,94.40
2022-09-25T05:15:37.446Z,93.40
2022-09-25T05:17:41.762Z,92.20
2022-09-25T05:19:46.386Z,90.80
2022-09-25T05:21:50.738Z,89.90
2022-09-25T05:23:55.181Z,89.50
2022-09-25T05:26:02.450Z,88.40
2022-09-25T05:28:07.361Z,88.20
2022-09-25T05:30:14.508Z,87.70
2022-09-25T05:32:19.140Z,88.60
2022-09-25T05:34:23.680Z,88.10
2022-09-25T05:36:28.969Z,87.90
2022-09-25T05:38:34.782Z,87.60
2022-09-25T05:40:39.805Z,86.50
2022-09-25T05:42:44.735Z,85.50
2022-09-25T05:44:49.127Z,84.60
2022-09-25T05:46:56.664Z,81.70
2022-09-25T05:49:01.288Z,82.40
2022-09-25T05:51:05.951Z,81.70
2022-09-25T05:53:11.259Z,82.80
2022-09-25T05:55:15.575Z,83.20
2022-09-25T05:57:20.342Z,82.50
2022-09-25T05:59:24.816Z,84.00
2022-09-25T06:01:29.043Z,84.20
2022-09-25T06:03:35.140Z,83.10
2022-09-25T06:05:40.472Z,82.60
2022-09-25T06:07:44.933Z,82.80
2022-09-25T06:09:49.832Z,84.20
2022-09-25T06:11:54.496Z,84.40
2022-09-25T06:13:58.771Z,84.80
2022-09-25T06:16:03.868Z,84.10
2022-09-25T06:18:10.430Z,82.70
2022-09-25T06:20:16.633Z,83.20
2022-09-25T06:22:20.908Z,84.00
2022-09-25T06:24:25.593Z,85.50
2022-09-25T06:26:30.094Z,86.50
2022-09-25T06:28:35.727Z,87.10
2022-09-25T06:30:40.709Z,86.50
2022-09-25T06:32:45.119Z,85.20
2022-09-25T06:34:49.365Z,86.80
2022-09-25T06:36:55.415Z,88.60
2022-09-25T06:39:00.012Z,84.20
2022-09-25T06:41:04.686Z,83.40
2022-09-25T06:43:11.782Z,80.60
2022-09-25T06:45:16.229Z,81.50
2022-09-25T06:47:24.722Z,81.20
2022-09-25T06:49:31.049Z,80.70
2022-09-25T06:51:36.623Z,78.30
2022-09-25T06:53:42.599Z,78.50
2022-09-25T06:55:47.208Z,81.00
2022-09-25T06:57:51.745Z,78.40
2022-09-25T06:59:56.040Z,78.70
2022-09-25T07:02:20.654Z,77.30
2022-09-25T07:04:26.479Z,77.70
2022-09-25T07:06:34.794Z,76.70
2022-09-25T07:08:39.183Z,76.40
2022-09-25T07:10:50.984Z,76.50
2022-09-25T07:12:55.356Z,76.10
2022-09-25T07:14:59.709Z,75.40
2022-09-25T07:17:04.051Z,75.10
2022-09-25T07:19:09.436Z,74.00
2022-09-25T07:21:15.670Z,73.10
2022-09-25T07:23:22.355Z,71.90
2022-09-25T07:25:27.046Z,74.90
2022-09-25T07:27:33.468Z,73.70
2022-09-25T07:29:37.993Z,75.30
2022-09-25T07:31:44.826Z,74.20
2022-09-25T07:33:49.874Z,73.90
2022-09-25T07:35:54.223Z,71.60
2022-09-25T07:37:58.665Z,71.60
2022-09-25T07:40:03.254Z,70.90
2022-09-25T07:42:08.821Z,72.60
2022-09-25T07:44:37.230Z,72.20
2022-09-25T07:46:43.168Z,69.90
2022-09-25T07:48:50.394Z,71.00
2022-09-25T07:50:56.646Z,68.70
2022-09-25T07:53:03.037Z,68.00
2022-09-25T07:55:08.497Z,69.80
2022-09-25T07:57:13.381Z,68.00
2022-09-25T07:59:22.636Z,68.30
2022-09-25T08:01:27.060Z,68.80
2022-09-25T08:03:35.966Z,68.70
2022-09-25T08:05:47.196Z,67.60
2022-09-25T08:07:57.127Z,68.40
2022-09-25T08:10:03.627Z,65.20
2022-09-25T08:12:11.539Z,66.60
2022-09-25T08:14:25.880Z,65.70
2022-09-25T08:16:31.249Z,67.10
2022-09-25T08:18:35.870Z,63.10
2022-09-25T08:20:40.582Z,66.20
2022-09-25T08:22:45.042Z,64.70
2022-09-25T08:24:55.129Z,64.70
2022-09-25T08:27:00.380Z,63.40
2022-09-25T08:29:30.350Z,63.10
2022-09-25T08:31:35.106Z,64.30
2022-09-25T08:33:40.490Z,61.80
2022-09-25T08:35:45.098Z,62.60
2022-09-25T08:37:49.601Z,61.70
2022-09-25T08:39:54.771Z,60.70
2022-09-25T08:42:00.819Z,61.40
2022-09-25T08:44:08.476Z,59.70
2022-09-25T08:46:40.589Z,60.70
2022-09-25T08:49:06.097Z,59.70
2022-09-25T08:51:11.540Z,61.60
2022-09-25T08:55:50.968Z,59.30
2022-09-25T08:57:55.715Z,59.20
2022-09-25T09:00:03.855Z,59.90
2022-09-25T09:02:16.062Z,58.00
2022-09-25T09:04:26.917Z,59.30
2022-09-25T09:06:33.117Z,58.00
2022-09-25T09:08:40.075Z,57.90
2022-09-25T09:10:48.397Z,57.70
2022-09-25T09:12:57.800Z,58.00
2022-09-25T09:15:19.922Z,58.40
2022-09-25T09:17:29.945Z,59.50
2022-09-25T09:19:34.793Z,58.90
2022-09-25T09:21:40.626Z,57.50
2022-09-25T09:23:52.918Z,58.20
2022-09-25T09:26:11.311Z,58.00
2022-09-25T09:28:35.392Z,59.40
2022-09-25T09:30:46.576Z,59.00
2022-09-25T09:33:13.113Z,59.20
2022-09-25T09:35:33.424Z,58.80
2022-09-25T09:37:52.290Z,59.00
2022-09-25T09:40:09.990Z,57.60
2022-09-25T09:42:22.279Z,58.30
2022-09-25T09:44:45.952Z,58.00
2022-09-25T09:46:59.078Z,57.20
2022-09-25T09:49:20.905Z,56.80
2022-09-25T09:51:32.259Z,55.80
2022-09-25T09:53:41.102Z,57.10
2022-09-25T09:55:49.966Z,54.90
2022-09-25T09:57:56.647Z,55.40
2022-09-25T10:00:05.697Z,55.80
2022-09-25T10:02:30.159Z,56.60
2022-09-25T10:04:40.878Z,56.20
2022-09-25T10:06:49.044Z,58.20
2022-09-25T10:08:53.465Z,55.50
2022-09-25T10:10:59.565Z,56.60
2022-09-25T10:13:07.048Z,57.40
2022-09-25T10:15:19.299Z,57.40
2022-09-25T10:17:25.027Z,58.00
2022-09-25T10:19:32.941Z,56.70
2022-09-25T10:21:43.665Z,57.10
2022-09-25T10:23:52.883Z,57.00
2022-09-25T10:25:57.223Z,55.70
2022-09-25T10:28:01.776Z,57.80
2022-09-25T10:30:15.412Z,55.60
2022-09-25T10:32:19.973Z,56.50
2022-09-25T10:34:26.553Z,57.90
2022-09-25T10:36:37.410Z,55.10
2022-09-25T10:38:53.440Z,55.20
2022-09-25T10:41:06.450Z,56.00
2022-09-25T10:43:18.896Z,56.20
2022-09-25T10:45:34.164Z,54.10
2022-09-25T10:47:56.185Z,55.50
2022-09-25T10:50:15.868Z,55.10
2022-09-25T10:52:21.448Z,56.10
2022-09-25T10:54:27.311Z,55.90
2022-09-25T10:56:38.992Z,54.20
2022-09-25T10:58:47.947Z,56.10
2022-09-25T11:00:57.978Z,55.60
2022-09-25T11:03:05.851Z,56.20
2022-09-25T11:05:18.318Z,54.40
2022-09-25T11:07:27.914Z,55.10
2022-09-25T11:09:35.555Z,55.50
2022-09-25T11:11:41.103Z,54.00
2022-09-25T11:13:48.823Z,53.70
2022-09-25T11:15:58.088Z,53.50
2022-09-25T11:18:06.346Z,55.40
2022-09-25T11:20:27.946Z,53.50
2022-09-25T11:22:36.693Z,53.00
2022-09-25T11:25:01.285Z,52.60
2022-09-25T11:27:14.727Z,53.60
2022-09-25T11:29:27.181Z,54.10
2022-09-25T11:31:37.691Z,53.10
2022-09-25T11:33:46.976Z,53.70
2022-09-25T11:35:57.285Z,52.00
2022-09-25T11:38:14.503Z,52.90
2022-09-25T11:40:49.626Z,53.30
2022-09-25T11:43:01.106Z,53.30
2022-09-25T11:45:09.496Z,53.90
2022-09-25T11:47:19.158Z,54.70
2022-09-25T11:49:27.991Z,55.10
2022-09-25T11:51:56.159Z,54.80
2022-09-25T11:54:31.896Z,54.90
2022-09-25T11:56:39.745Z,53.50
2022-09-25T11:58:57.340Z,53.80
2022-09-25T12:01:11.102Z,54.10
2022-09-25T12:03:35.520Z,53.50
2022-09-25T12:05:58.803Z,55.00
2022-09-25T12:08:17.654Z,54.40
2022-09-25T12:10:33.607Z,53.90
2022-09-25T12:12:47.387Z,53.80
2022-09-25T12:15:01.767Z,54.60
2022-09-25T12:17:16.025Z,53.70
2022-09-25T12:19:38.872Z,53.10
2022-09-25T12:21:50.103Z,54.10
2022-09-25T12:24:00.373Z,52.70
2022-09-25T12:26:17.783Z,53.00
2022-09-25T12:28:33.302Z,53.50
2022-09-25T12:30:46.909Z,52.60
2022-09-25T12:33:04.629Z,52.60
2022-09-25T12:35:27.082Z,51.50
2022-09-25T12:37:38.757Z,51.70
2022-09-25T12:39:46.158Z,51.60
2022-09-25T12:41:56.346Z,52.00
2022-09-25T12:44:09.241Z,52.30
2022-09-25T12:46:23.074Z,51.90
2022-09-25T12:48:34.681Z,51.60
2022-09-25T12:50:45.513Z,51.50
2022-09-25T12:52:54.012Z,51.50
2022-09-25T12:55:03.686Z,51.70
2022-09-25T12:57:14.935Z,51.80
2022-09-25T12:59:26.876Z,51.50
2022-09-25T13:01:38.925Z,50.70
2022-09-25T13:03:48.751Z,51.50
2022-09-25T13:06:03.892Z,50.90
2022-09-25T13:08:16.366Z,51.00
2022-09-25T13:10:28.218Z,51.70
2022-09-25T13:12:35.838Z,51.50
2022-09-25T13:14:47.002Z,50.50
2022-09-25T13:16:51.686Z,50.40
2022-09-25T13:19:12.778Z,50.80
2022-09-25T13:21:31.078Z,50.90
2022-09-25T13:23:38.688Z,50.20
2022-09-25T13:25:46.589Z,50.30
2022-09-25T13:27:54.268Z,50.40
2022-09-25T13:30:02.933Z,50.50
2022-09-25T13:32:15.937Z,50.60
2022-09-25T13:34:24.548Z,50.50
2022-09-25T13:36:47.635Z,50.80
2022-09-25T13:39:14.227Z,50.20
2022-09-25T13:41:18.666Z,50.50
2022-09-25T13:43:25.121Z,50.10
2022-09-25T13:45:34.447Z,49.70
2022-09-25T13:48:06.960Z,49.70
2022-09-25T13:50:23.742Z,49.80
2022-09-25T13:52:31.419Z,50.00
2022-09-25T13:54:35.790Z,49.80
2022-09-25T13:56:50.823Z,49.90
2022-09-25T13:59:03.641Z,49.70
2022-09-25T14:01:22.011Z,49.70
2022-09-25T14:03:44.174Z,49.40
2022-09-25T14:05:48.771Z,49.50
2022-09-25T14:07:57.431Z,49.40
2022-09-25T14:10:03.282Z,49.30
2022-09-25T14:12:19.508Z,49.90
2022-09-25T14:14:31.530Z,49.80
2022-09-25T14:16:50.437Z,50.20
2022-09-25T14:18:55.505Z,50.00
2022-09-25T14:21:01.484Z,50.00
2022-09-25T14:23:14.356Z,50.40
2022-09-25T14:25:33.148Z,50.70
2022-09-25T14:27:37.671Z,49.70
2022-09-25T14:29:43.386Z,50.00
2022-09-25T14:32:08.156Z,50.60
2022-09-25T14:34:38.071Z,51.00
2022-09-25T14:36:53.818Z,50.50
2022-09-25T14:39:22.378Z,50.70
2022-09-25T14:41:53.135Z,50.40
2022-09-25T14:44:17.914Z,50.30
2022-09-25T14:46:23.728Z,50.50
2022-09-25T14:48:35.108Z,50.70
2022-09-25T14:50:46.178Z,50.60
2022-09-25T14:52:52.984Z,50.30
2022-09-25T14:55:00.279Z,51.90
2022-09-25T14:57:06.215Z,52.00
2022-09-25T14:59:13.433Z,53.20
2022-09-25T15:01:26.065Z,55.10
2022-09-25T15:03:33.755Z,56.90
2022-09-25T15:05:38.416Z,52.70
2022-09-25T15:07:44.532Z,55.50
2022-09-25T15:09:49.893Z,55.80
2022-09-25T15:11:56.651Z,58.00
2022-09-25T15:14:12.157Z,58.00
2022-09-25T15:16:38.760Z,57.30
2022-09-25T15:18:46.483Z,58.20
2022-09-25T15:20:50.892Z,57.40
2022-09-25T15:22:58.278Z,58.40
2022-09-25T15:25:06.624Z,58.10
2022-09-25T15:27:16.475Z,60.40
2022-09-25T15:29:23.753Z,60.90
2022-09-25T15:31:28.206Z,59.50
2022-09-25T15:33:37.132Z,60.50
2022-09-25T15:35:42.981Z,60.90
2022-09-25T15:37:48.164Z,61.70
2022-09-25T15:39:52.476Z,61.60
2022-09-25T15:41:57.874Z,61.90
2022-09-25T15:44:15.051Z,62.50
2022-09-25T15:46:36.342Z,63.50
2022-09-25T15:48:42.528Z,63.40
2022-09-25T15:50:49.079Z,65.10
2022-09-25T15:52:55.481Z,65.30
2022-09-25T15:55:02.403Z,65.70
2022-09-25T15:57:13.304Z,67.20
2022-09-25T15:59:20.867Z,68.50
2022-09-25T16:01:45.355Z,69.20
2022-09-25T16:04:11.087Z,70.00
2022-09-25T16:06:17.987Z,70.00
2022-09-25T16:08:31.813Z,70.50
2022-09-25T16:10:36.048Z,70.20
2022-09-25T16:12:47.599Z,70.40
2022-09-25T16:14:52.368Z,71.00
2022-09-25T16:17:00.124Z,71.50
2022-09-25T16:19:32.505Z,71.40
2022-09-25T16:21:41.115Z,71.90
2022-09-25T16:23:55.713Z,72.30
2022-09-25T16:26:00.662Z,72.60
2022-09-25T16:28:09.243Z,72.70
2022-09-25T16:30:18.859Z,73.10
2022-09-25T16:32:24.502Z,73.70
2022-09-25T16:34:31.301Z,75.00
2022-09-25T16:36:43.439Z,75.00
2022-09-25T16:39:19.999Z,75.20
2022-09-25T16:41:27.040Z,76.00
2022-09-25T16:43:34.456Z,76.60
2022-09-25T16:45:57.935Z,77.50
2022-09-25T16:48:23.970Z,78.40
2022-09-25T16:50:33.425Z,79.70
2022-09-25T16:52:43.266Z,79.70
2022-09-25T16:54:52.648Z,78.60
2022-09-25T16:56:59.411Z,79.10
2022-09-25T16:59:04.399Z,79.10
2022-09-25T17:01:08.657Z,77.30
2022-09-25T17:03:14.053Z,75.80
2022-09-25T17:05:21.058Z,75.00
2022-09-25T17:07:25.416Z,75.80
2022-09-25T17:09:31.505Z,76.80
2022-09-25T17:11:36.403Z,77.90
2022-09-25T17:13:41.620Z,79.10
2022-09-25T17:15:47.726Z,80.00
2022-09-25T17:17:55.365Z,80.30
2022-09-25T17:19:59.749Z,80.60
2022-09-25T17:22:04.553Z,81.20
2022-09-25T17:24:12.505Z,81.60
2022-09-25T17:26:21.397Z,82.70
2022-09-25T17:28:26.095Z,80.80
2022-09-25T17:30:30.283Z,80.40
2022-09-25T17:32:34.405Z,80.00
2022-09-25T17:34:38.590Z,80.00
2022-09-25T17:36:42.868Z,80.20
2022-09-25T17:38:47.453Z,80.30
2022-09-25T17:40:53.455Z,80.80
2022-09-25T17:42:59.084Z,82.00
2022-09-25T17:45:03.173Z,82.50
2022-09-25T17:47:09.688Z,82.70
2022-09-25T17:49:15.122Z,82.90
2022-09-25T17:51:21.300Z,83.00
2022-09-25T17:53:27.946Z,83.30
2022-09-25T17:55:32.956Z,83.70
2022-09-25T17:57:37.194Z,83.80
2022-09-25T17:59:42.729Z,83.60
2022-09-25T18:01:47.051Z,83.30
2022-09-25T18:03:51.263Z,82.00
2022-09-25T18:05:56.234Z,83.10
2022-09-25T18:08:00.353Z,80.70
2022-09-25T18:10:04.941Z,81.10
2022-09-25T18:12:10.310Z,81.00
2022-09-25T18:14:16.892Z,81.80
2022-09-25T18:16:26.320Z,82.60
2022-09-25T18:18:50.706Z,82.50
2022-09-25T18:21:12.327Z,84.30
2022-09-25T18:23:16.494Z,84.80
2022-09-25T18:25:20.594Z,85.70
2022-09-25T18:27:26.330Z,85.60
2022-09-25T18:29:30.440Z,85.90
2022-09-25T18:31:36.210Z,86.50
2022-09-25T18:33:44.147Z,86.60
2022-09-25T18:35:51.030Z,86.50
2022-09-25T18:37:59.011Z,86.90
2022-09-25T18:40:03.633Z,87.30
2022-09-25T18:42:08.647Z,87.40
2022-09-25T18:44:13.216Z,87.40
2022-09-25T18:46:17.531Z,87.40
2022-09-25T18:48:23.378Z,87.30
2022-09-25T18:50:28.863Z,87.40
2022-09-25T18:52:33.429Z,87.60
2022-09-25T18:54:42.084Z,87.80
2022-09-25T18:56:46.385Z,88.30
2022-09-25T18:58:51.820Z,88.40
2022-09-25T19:00:56.309Z,88.70
2022-09-25T19:03:00.756Z,87.00
2022-09-25T19:05:08.190Z,86.90
2022-09-25T19:07:12.580Z,87.00
2022-09-25T19:09:17.589Z,89.80
2022-09-25T19:11:22.483Z,89.80
2022-09-25T19:13:27.904Z,90.20
2022-09-25T19:15:33.487Z,90.00
2022-09-25T19:17:37.989Z,89.90
2022-09-25T19:19:43.124Z,90.00
2022-09-25T19:21:48.695Z,90.00
2022-09-25T19:23:53.096Z,89.90
2022-09-25T19:26:01.169Z,90.40
2022-09-25T19:28:07.180Z,90.30
2022-09-25T19:30:12.920Z,89.00
2022-09-25T19:32:19.222Z,88.80
2022-09-25T19:34:23.348Z,88.50
2022-09-25T19:36:30.651Z,88.90
2022-09-25T19:38:38.431Z,90.00
2022-09-25T19:40:42.782Z,90.20
2022-09-25T19:42:47.002Z,90.20
2022-09-25T19:44:51.199Z,90.20
2022-09-25T19:46:55.327Z,86.10
2022-09-25T19:48:59.815Z,81.60
2022-09-25T19:51:07.411Z,85.40
2022-09-25T19:53:11.700Z,87.10
2022-09-25T19:55:17.396Z,87.90
2022-09-25T19:57:21.673Z,87.80
2022-09-25T19:59:30.040Z,89.10
2022-09-25T20:01:34.750Z,89.30
2022-09-25T20:03:39.096Z,88.70
2022-09-25T20:05:44.869Z,88.90
2022-09-25T20:07:49.849Z,88.00
2022-09-25T20:09:54.227Z,88.70
2022-09-25T20:11:59.936Z,89.20
2022-09-25T20:14:07.655Z,88.90
2022-09-25T20:16:13.980Z,88.40
2022-09-25T20:18:18.608Z,89.10
2022-09-25T20:20:22.848Z,85.90
2022-09-25T20:22:27.165Z,81.50
2022-09-25T20:24:31.412Z,79.60
2022-09-25T20:26:36.602Z,79.00
2022-09-25T20:28:43.532Z,84.80
2022-09-25T20:30:47.877Z,89.60
2022-09-25T20:32:52.404Z,90.10
2022-09-25T20:34:56.741Z,90.40
2022-09-25T20:37:01.043Z,90.50
2022-09-25T20:39:05.914Z,90.50
2022-09-25T20:41:12.450Z,90.60
2022-09-25T20:43:16.874Z,90.70
2022-09-25T20:45:22.524Z,90.30
2022-09-25T20:47:33.566Z,89.50
2022-09-25T20:49:38.260Z,87.20
2022-09-25T20:51:42.487Z,85.30
2022-09-25T20:53:51.444Z,87.80
2022-09-25T20:55:56.082Z,88.30
2022-09-25T20:58:00.221Z,88.70
2022-09-25T21:00:04.890Z,90.00
2022-09-25T21:02:19.279Z,90.40
2022-09-25T21:04:23.499Z,90.50
2022-09-25T21:06:29.559Z,90.70
2022-09-25T21:08:35.183Z,90.90
2022-09-25T21:10:40.501Z,91.10
2022-09-25T21:12:44.881Z,91.00
2022-09-25T21:14:50.167Z,90.80
2022-09-25T21:16:56.368Z,90.60
2022-09-25T21:19:04.578Z,90.50
2022-09-25T21:21:11.302Z,90.60
2022-09-25T21:23:15.651Z,90.70
2022-09-25T21:25:20.924Z,90.60
2022-09-25T21:27:25.231Z,90.90
2022-09-25T21:29:32.025Z,90.80
2022-09-25T21:31:38.652Z,91.00
2022-09-25T21:33:43.076Z,91.00
2022-09-25T21:35:49.939Z,90.80
2022-09-25T21:37:54.316Z,91.00
2022-09-25T21:39:58.461Z,91.20
2022-09-25T21:42:04.862Z,91.20
2022-09-25T21:44:13.281Z,91.30
2022-09-25T21:46:19.284Z,91.70
2022-09-25T21:48:23.710Z,91.60
2022-09-25T21:50:27.898Z,91.40
2022-09-25T21:52:33.450Z,90.70
2022-09-25T21:54:37.649Z,90.10
2022-09-25T21:56:43.290Z,89.30
2022-09-25T21:58:48.047Z,88.60
2022-09-25T22:00:52.224Z,88.30
2022-09-25T22:02:56.588Z,88.70
2022-09-25T22:05:00.702Z,89.30
2022-09-25T22:07:04.876Z,90.90
2022-09-25T22:09:14.452Z,91.80
2022-09-25T22:11:19.475Z,92.00
2022-09-25T22:13:23.777Z,91.80
2022-09-25T22:15:27.984Z,92.20
2022-09-25T22:17:32.135Z,92.10
2022-09-25T22:19:36.230Z,92.10
2022-09-25T22:21:41.660Z,92.20
2022-09-25T22:23:45.961Z,92.10
2022-09-25T22:25:52.425Z,91.80
2022-09-25T22:27:56.530Z,91.80
2022-09-25T22:30:02.221Z,91.60
2022-09-25T22:32:07.159Z,91.70
2022-09-25T22:34:17.280Z,91.80
2022-09-25T22:36:21.549Z,92.00
2022-09-25T22:38:25.674Z,92.10
2022-09-25T22:40:29.940Z,92.20
2022-09-25T22:42:35.533Z,92.10
2022-09-25T22:44:39.748Z,91.70
2022-09-25T22:46:44.017Z,91.50
2022-09-25T22:48:48.204Z,91.90
2022-09-25T22:50:56.130Z,91.90
2022-09-25T22:53:00.282Z,91.60
2022-09-25T22:55:05.698Z,91.40
2022-09-25T22:57:09.789Z,91.40
2022-09-25T22:59:18.082Z,91.90
2022-09-25T23:01:27.445Z,92.00
2022-09-25T23:03:31.790Z,92.30
2022-09-25T23:05:37.233Z,92.30
2022-09-25T23:07:41.450Z,92.20
2022-09-25T23:09:45.873Z,91.10
2022-09-25T23:11:50.317Z,91.40
2022-09-25T23:13:59.758Z,91.70
2022-09-25T23:16:08.358Z,91.10
2022-09-25T23:18:12.592Z,91.30
2022-09-25T23:20:17.159Z,91.90
2022-09-25T23:22:21.585Z,92.20
2022-09-25T23:24:26.617Z,91.90
2022-09-25T23:26:32.166Z,92.00
2022-09-25T23:28:38.472Z,92.10
2022-09-25T23:30:42.710Z,92.30
2022-09-25T23:32:48.236Z,92.80
2022-09-25T23:34:52.383Z,93.00
2022-09-25T23:36:56.579Z,93.20
2022-09-25T23:39:02.087Z,93.50
2022-09-25T23:41:15.577Z,93.40
2022-09-25T23:43:20.845Z,93.60
2022-09-25T23:45:25.100Z,93.70
2022-09-25T23:47:30.156Z,93.80
2022-09-25T23:49:35.657Z,93.90
2022-09-25T23:51:40.242Z,93.90
2022-09-25T23:53:45.700Z,94.00
2022-09-25T23:55:49.872Z,94.20
2022-09-25T23:57:54.246Z,94.10
2022-09-25T23:59:58.553Z,94.10
